This is the latest recevied weather packets stored in our database for station/object KO4IDC-13. If no packets are shown the sender has not sent any weather packets the latest 1 day(s).
| Time | Temp. | Humidity | Pressure | Rain* | Wind** | Luminosity | Snow |
|---|---|---|---|---|---|---|---|
| 1778009097 | 16.11° C | 95% | 1010.2 hPa | 0 mm | 1.34 m/s, 153° | 100 W/m² | - |
| 1778008794 | 16.11° C | 95% | 1010.4 hPa | 0 mm | 2.24 m/s, 171° | 43 W/m² | - |
| 1778008493 | 16.67° C | 96% | 1010.5 hPa | 0 mm | 1.34 m/s, 178° | 56 W/m² | - |
| 1778008189 | 16.11° C | 96% | 1010.4 hPa | 0 mm | 1.34 m/s, 190° | 122 W/m² | - |
| 1778007884 | 16.67° C | 96% | 1010.7 hPa | 0 mm | 0.89 m/s, 179° | 75 W/m² | - |
| 1778007580 | 16.67° C | 96% | 1010.9 hPa | 0 mm | 0.45 m/s, 177° | 71 W/m² | - |
| 1778007278 | 16.67° C | 96% | 1010.7 hPa | 0 mm | 1.34 m/s, 113° | 125 W/m² | - |
| 1778006974 | 16.67° C | 96% | 1010.8 hPa | 0 mm | 1.34 m/s, 188° | 111 W/m² | - |
| 1778006671 | 16.67° C | 96% | 1010.8 hPa | 0 mm | 1.34 m/s, 198° | 103 W/m² | - |
| 1778006367 | 16.67° C | 96% | 1010.8 hPa | 0 mm | 1.34 m/s, 113° | 102 W/m² | - |
| 1778006064 | 16.67° C | 96% | 1010.8 hPa | 0 mm | 1.34 m/s, 198° | 204 W/m² | - |
| 1778005761 | 16.67° C | 96% | 1010.8 hPa | 0 mm | 1.79 m/s, 210° | 110 W/m² | - |
| 1778005458 | 16.67° C | 96% | 1010.7 hPa | 0 mm | 1.79 m/s, 140° | 142 W/m² | - |
| 1778005154 | 16.67° C | 97% | 1010.8 hPa | 0 mm | 0.89 m/s, 173° | 215 W/m² | - |
| 1778004852 | 16.67° C | 96% | 1010.6 hPa | 0 mm | 1.79 m/s, 183° | 263 W/m² | - |
| 1778004548 | 16.11° C | 96% | 1010.9 hPa | 0 mm | 1.79 m/s, 168° | 223 W/m² | - |
| 1778004245 | 16.11° C | 96% | 1010.9 hPa | 0 mm | 2.24 m/s, 122° | 180 W/m² | - |
| 1778003941 | 16.11° C | 96% | 1011.1 hPa | 1.78 mm | 1.79 m/s, 212° | 96 W/m² | - |
| 1778003638 | 16.11° C | 96% | 1011.2 hPa | 1.78 mm | 1.79 m/s, 172° | 107 W/m² | - |
| 1778003334 | 16.11° C | 96% | 1011.2 hPa | 0 mm | 1.79 m/s, 182° | 86 W/m² | - |
| 1778003032 | 16.11° C | 96% | 1011.3 hPa | 0 mm | 1.79 m/s, 186° | 98 W/m² | - |
| 1778002728 | 16.11° C | 96% | 1011.3 hPa | 0 mm | 0.89 m/s, 149° | 76 W/m² | - |
| 1778002425 | 16.11° C | 96% | 1011.1 hPa | 0 mm | 1.34 m/s, 195° | 122 W/m² | - |
| 1778002122 | 16.11° C | 96% | 1011.1 hPa | 0 mm | 3.58 m/s, 164° | 111 W/m² | - |
| 1778001820 | 16.11° C | 96% | 1011.1 hPa | 1.27 mm | 2.24 m/s, 176° | 141 W/m² | - |
* Rain latest hour (hover to see other rain measurements)
** Current wind speed in m/s (hover to see current wind gust speed)